createdAt,value
2023-02-18T09:03:14.608Z,100.00
2023-02-18T09:05:41.406Z,100.00
2023-02-18T09:08:08.668Z,100.00
2023-02-18T09:10:35.448Z,100.00
2023-02-18T09:13:03.198Z,100.00
2023-02-18T09:15:31.749Z,100.00
2023-02-18T09:18:02.508Z,100.00
2023-02-18T09:20:29.667Z,100.00
2023-02-18T09:22:57.282Z,-1.00
2023-02-18T09:25:24.758Z,-1.00
2023-02-18T09:27:51.700Z,-1.00
2023-02-18T09:30:18.944Z,-1.00
2023-02-18T09:32:46.288Z,-1.00
2023-02-18T09:35:14.066Z,-1.00
2023-02-18T09:37:41.267Z,-1.00
2023-02-18T09:40:15.982Z,-1.00
2023-02-18T09:42:44.620Z,-1.00
2023-02-18T09:45:11.779Z,-1.00
2023-02-18T09:47:40.765Z,-1.00
2023-02-18T09:50:17.816Z,-1.00
2023-02-18T09:52:45.685Z,-1.00
2023-02-18T09:55:19.916Z,-1.00
2023-02-18T09:57:52.777Z,-1.00
2023-02-18T10:00:25.157Z,-1.00
2023-02-18T10:03:18.638Z,-1.00
2023-02-18T10:05:55.909Z,-1.00
2023-02-18T10:08:28.090Z,-1.00
2023-02-18T10:10:55.011Z,-1.00
2023-02-18T10:13:24.998Z,-1.00
2023-02-18T10:15:51.920Z,-1.00
2023-02-18T10:21:04.133Z,-1.00
2023-02-18T10:23:33.537Z,-1.00
2023-02-18T10:26:06.058Z,-1.00
2023-02-18T10:28:34.365Z,-1.00
2023-02-18T10:31:10.397Z,-1.00
2023-02-18T10:33:49.113Z,-1.00
2023-02-18T10:36:22.313Z,-1.00
2023-02-18T10:39:13.262Z,-1.00
2023-02-18T10:42:12.532Z,-1.00
2023-02-18T10:44:52.612Z,-1.00
2023-02-18T10:47:41.606Z,-1.00
2023-02-18T10:50:13.519Z,-1.00
2023-02-18T10:52:43.177Z,-1.00
2023-02-18T10:55:12.098Z,-1.00
2023-02-18T10:57:46.688Z,-1.00
2023-02-18T11:00:14.237Z,-1.00
2023-02-18T11:02:42.006Z,-1.00
2023-02-18T11:05:23.049Z,-1.00
2023-02-18T11:07:50.872Z,-1.00
2023-02-18T11:10:33.143Z,-1.00
2023-02-18T11:13:01.547Z,-1.00
2023-02-18T11:15:29.251Z,-1.00
2023-02-18T11:18:10.945Z,-1.00
2023-02-18T11:20:40.528Z,-1.00
2023-02-18T11:23:07.205Z,-1.00
2023-02-18T11:25:36.371Z,-1.00
2023-02-18T11:28:25.354Z,-1.00
2023-02-18T11:30:57.924Z,-1.00
2023-02-18T11:33:39.729Z,-1.00
2023-02-18T11:36:21.452Z,-1.00
2023-02-18T11:38:53.174Z,-1.00
2023-02-18T11:41:30.162Z,-1.00
2023-02-18T11:43:56.904Z,-1.00
2023-02-18T11:46:26.307Z,-1.00
2023-02-18T11:48:53.394Z,-1.00
2023-02-18T11:51:28.232Z,-1.00
2023-02-18T11:54:24.599Z,-1.00
2023-02-18T11:57:05.453Z,-1.00
2023-02-18T11:59:36.930Z,-1.00
2023-02-18T12:02:09.820Z,-1.00
2023-02-18T12:04:43.243Z,-1.00
2023-02-18T12:07:13.606Z,-1.00
2023-02-18T12:09:46.278Z,-1.00
2023-02-18T12:12:15.723Z,-1.00
2023-02-18T12:14:45.732Z,-1.00
2023-02-18T12:17:38.233Z,-1.00
2023-02-18T12:20:07.836Z,-1.00
2023-02-18T12:23:33.645Z,-1.00
2023-02-18T12:26:33.557Z,-1.00
2023-02-18T12:29:19.214Z,-1.00
2023-02-18T12:32:20.158Z,-1.00
2023-02-18T12:34:46.949Z,-1.00
2023-02-18T12:37:19.409Z,-1.00
2023-02-18T12:42:27.795Z,72.68
2023-02-18T13:29:25.912Z,78.93
2023-02-18T13:32:35.202Z,77.69
2023-02-18T13:35:29.403Z,76.03
2023-02-18T13:38:12.555Z,76.20
2023-02-18T13:40:39.818Z,76.21
2023-02-18T13:43:18.734Z,75.95
2023-02-18T13:46:14.098Z,76.52
2023-02-18T14:33:14.674Z,82.16
2023-02-18T14:35:53.320Z,81.54
2023-02-18T14:38:38.260Z,81.41
2023-02-18T14:44:23.250Z,81.71
2023-02-18T14:55:04.818Z,81.34
2023-02-18T14:57:45.792Z,80.95
2023-02-18T15:00:24.393Z,80.59
2023-02-18T15:02:53.395Z,80.77
2023-02-18T15:05:23.292Z,80.57
2023-02-18T15:08:27.797Z,80.43
2023-02-18T15:11:00.973Z,80.27
2023-02-18T15:13:37.064Z,80.13
2023-02-18T15:16:07.822Z,79.78
2023-02-18T15:18:39.288Z,79.75
2023-02-18T15:21:09.905Z,79.72
2023-02-18T15:23:39.849Z,79.68
2023-02-18T15:26:10.860Z,79.62
2023-02-18T15:28:42.613Z,79.62
2023-02-18T15:31:15.433Z,79.71
2023-02-18T15:33:47.135Z,79.90
2023-02-18T15:36:15.267Z,79.73
2023-02-18T15:38:44.531Z,79.90
2023-02-18T15:41:26.172Z,79.66
2023-02-18T15:44:27.616Z,79.56
2023-02-18T15:47:08.925Z,79.88
2023-02-18T15:49:39.700Z,79.86
2023-02-18T15:52:09.197Z,79.75
2023-02-18T15:54:44.573Z,79.80
2023-02-18T15:57:14.928Z,79.88
2023-02-18T15:59:48.480Z,79.92
2023-02-18T16:02:20.375Z,80.25
2023-02-18T16:07:33.981Z,80.19
2023-02-18T16:10:20.771Z,79.78
2023-02-18T17:48:30.634Z,86.01
2023-02-18T17:50:57.531Z,85.14
2023-02-18T17:53:25.681Z,84.76
2023-02-18T17:55:52.821Z,83.92
2023-02-18T17:58:20.245Z,83.52
2023-02-18T18:00:52.944Z,83.23
2023-02-18T18:03:21.739Z,82.97
2023-02-18T18:05:51.576Z,82.62
2023-02-18T18:08:20.947Z,82.38
2023-02-18T18:10:54.180Z,82.50
2023-02-18T18:13:39.118Z,82.18
2023-02-18T18:16:15.669Z,81.84
2023-02-18T18:18:47.341Z,81.76
2023-02-18T18:21:39.259Z,81.68
2023-02-18T18:24:09.400Z,81.28
2023-02-18T18:26:41.228Z,81.06
2023-02-18T18:29:09.864Z,80.75
2023-02-18T18:31:38.071Z,80.80
2023-02-18T18:34:09.852Z,80.89
2023-02-18T18:36:45.401Z,80.77
2023-02-18T18:39:14.111Z,80.71
2023-02-18T18:41:43.330Z,80.73
2023-02-18T18:44:12.082Z,80.31
2023-02-18T18:46:44.252Z,80.40
2023-02-18T18:49:12.562Z,80.12
2023-02-18T18:51:41.094Z,79.86
2023-02-18T18:54:14.141Z,79.86
2023-02-18T18:56:47.076Z,79.50
2023-02-18T18:59:25.193Z,79.40
2023-02-18T19:01:53.672Z,79.39
2023-02-18T19:04:22.054Z,79.08
2023-02-18T19:06:50.552Z,79.28
2023-02-18T19:09:18.737Z,79.10
2023-02-18T19:12:06.974Z,78.89
2023-02-18T19:14:37.741Z,78.96
2023-02-18T19:17:10.372Z,78.66
2023-02-18T19:19:40.160Z,78.56
2023-02-18T19:22:11.230Z,78.56
2023-02-18T19:24:41.538Z,78.21
2023-02-18T19:27:12.755Z,77.89
2023-02-18T19:29:50.530Z,77.80
2023-02-18T19:32:18.876Z,77.75
2023-02-18T19:34:47.123Z,77.59
2023-02-18T19:37:18.647Z,77.74
2023-02-18T19:39:48.174Z,77.48
2023-02-18T19:42:16.729Z,77.51
